NCAR-RAP Real-Time Weather Data

Output produced by METARs form (26 May 2022  08:47 UTC)
found at http://weather.rap.ucar.edu/surface/
 
KJFK 260751Z 07004KT 10SM FEW130 BKN250 12/09 A3033 RMK AO2 SLP268 T01220089
KJFK 260651Z 08003KT 10SM FEW130 BKN250 12/09 A3033 RMK AO2 SLP271 T01170089
KJFK 260551Z 09004KT 10SM FEW130 BKN250 11/08 A3035 RMK AO2 SLP276 T01110083 10133 20111 58012
KJFK 260451Z 08003KT 10SM BKN250 12/08 A3037 RMK AO2 SLP285 T01170083 401830106
KJFK 260351Z 15003KT 10SM BKN250 12/08 A3038 RMK AO2 SLP286 T01220078
KJFK 260251Z 13004KT 10SM BKN250 12/07 A3039 RMK AO2 SLP289 T01220072 52001
KJFK 260151Z 13003KT 10SM BKN250 13/07 A3038 RMK AO2 SLP288 T01280067
KJFK 260051Z 15005KT 10SM BKN250 13/07 A3038 RMK AO2 SLP288 T01280072
KJFK 252351Z 13008KT 10SM FEW100 BKN250 13/07 A3038 RMK AO2 SLP287 T01330067 10178 20133 53003
KJFK 252251Z 14008KT 10SM FEW050 FEW100 BKN250 15/06 A3037 RMK AO2 SLP284 T01500061
KJFK 252151Z 12010KT 10SM FEW050 FEW100 BKN250 15/06 A3037 RMK AO2 SLP285 T01500061
KJFK 252051Z 12011KT 10SM FEW050 BKN250 16/08 A3037 RMK AO2 SLP284 T01610078 58007
KJFK 251951Z 14010KT 10SM FEW050 BKN250 17/08 A3038 RMK AO2 SLP289 T01720078
KJFK 251851Z 12010KT 10SM FEW050 FEW090 BKN260 17/08 A3039 RMK AO2 SLP290 T01720078
KJFK 251751Z 14012KT 10SM FEW050 FEW090 BKN280 18/08 A3039 RMK AO2 SLP291 T01780083 10183 20144 58007
KJFK 251651Z 14010KT 10SM FEW090 BKN300 18/08 A3040 RMK AO2 SLP292 T01780083
KJFK 251551Z 15010KT 10SM FEW090 BKN300 18/08 A3042 RMK AO2 SLP299 T01830078
KJFK 251451Z 15005KT 10SM FEW050 FEW090 BKN300 18/08 A3041 RMK AO2 SLP299 T01780078 51004
KJFK 251351Z 14008KT 10SM FEW075 BKN300 17/07 A3041 RMK AO2 SLP297 T01670072
KJFK 251251Z 11005KT 10SM FEW075 BKN310 16/09 A3041 RMK AO2 SLP297 T01560089
KJFK 251151Z 07005KT 10SM FEW075 FEW250 BKN310 14/09 A3040 RMK AO2 SLP295 T01440089 10144 20106 53016
KJFK 251051Z 08006KT 10SM FEW090 FEW250 BKN310 13/09 A3037 RMK AO2 SLP285 T01280089
KJFK 250951Z 05006KT 10SM FEW090 BKN250 11/09 A3035 RMK AO2 SLP278 T01110089
KJFK 250851Z 04005KT 10SM FEW090 BKN250 11/08 A3036 RMK AO2 SLP279 T01110083 53007
KJFK 250751Z 04004KT 10SM SCT250 11/08 A3034 RMK AO2 SLP272 T01110083
KJFK 250651Z 02004KT 10SM SCT250 12/08 A3035 RMK AO2 SLP275 T01220083
KJFK 250551Z 06004KT 10SM SCT250 12/08 A3033 RMK AO2 SLP271 T01220083 10144 20117 55002
KJFK 250451Z 08004KT 10SM SCT250 12/09 A3033 RMK AO2 SLP271 T01220089 402000122
KJFK 250351Z 08005KT 10SM SCT250 12/09 A3034 RMK AO2 SLP273 T01220089
KJFK 250251Z 09005KT 10SM FEW090 BKN250 13/09 A3034 RMK AO2 SLP274 T01280089 51008
KJFK 250151Z 11006KT 10SM BKN090 BKN250 14/09 A3034 RMK AO2 SLP274 T01390089
KJFK 250051Z 10007KT 10SM BKN090 BKN250 14/09 A3033 RMK AO2 SLP271 T01440089
KJFK 242351Z 11010KT 10SM FEW055 BKN090 BKN250 14/08 A3032 RMK AO2 SLP266 T01440083 10200 20144 53008
KJFK 242251Z 14013KT 10SM FEW055 BKN090 BKN250 15/09 A3031 RMK AO2 SLP263 T01500094
KJFK 242151Z 14010KT 10SM FEW055 BKN090 BKN250 17/08 A3030 RMK AO2 SLP259 T01670078
KJFK 242051Z 14008KT 10SM FEW055 BKN085 BKN250 19/06 A3029 RMK AO2 SLP257 T01890061 56006
KJFK 241951Z 13013KT 10SM FEW055 BKN085 BKN250 18/07 A3029 RMK AO2 SLP258 T01830067
KJFK 241851Z 12010KT 10SM FEW055 BKN090 BKN250 19/07 A3030 RMK AO2 SLP261 T01940072
KJFK 241751Z 12013KT 10SM FEW045 SCT090 BKN260 18/08 A3031 RMK AO2 SLP263 T01830078 10194 20156 58003
KJFK 241651Z 12015KT 10SM FEW042 BKN090 BKN260 17/08 A3032 RMK AO2 SLP266 T01720078
KJFK 241551Z 11011KT 10SM FEW035 BKN090 BKN260 17/09 A3032 RMK AO2 SLP267 T01670094
KJFK 241451Z 08008KT 10SM SCT033 BKN085 BKN130 BKN260 17/10 A3032 RMK AO2 SLP265 SCT V BKN T01720100 53007
KJFK 241351Z 05010KT 10SM FEW046 SCT060 BKN090 OVC130 17/09 A3030 RMK AO2 SLP259 T01720094
KJFK 241251Z 06010KT 10SM BKN050 BKN130 OVC260 17/09 A3030 RMK AO2 SLP261 T01670094
KJFK 241151Z 05011KT 10SM BKN044 BKN130 OVC260 16/09 A3030 RMK AO2 SLP259 60000 T01560094 10161 20144 53020
KJFK 241051Z 05007KT 10SM FEW095 SCT130 BKN260 16/11 A3027 RMK AO2 SLP250 T01560111 $
KJFK 240951Z 07004KT 10SM FEW100 OVC130 15/11 A3026 RMK AO2 SLP246 T01500106 $
KJFK 240851Z 08004KT 10SM OVC100 14/11 A3024 RMK AO2 RAB07E29 SLP239 P0000 60000 T01440111 50000 $